sensor_id;sensor_type;location;lat;lon;timestamp;P1;durP1;ratioP1;P2;durP2;ratioP2
31224;SDS011;17847;31.524;74.366;2023-02-13T00:01:08;29.48;;;14.93;;
31224;SDS011;17847;31.524;74.366;2023-02-13T00:03:51;34.08;;;16.02;;
31224;SDS011;17847;31.524;74.366;2023-02-13T00:06:39;29.60;;;15.05;;
31224;SDS011;17847;31.524;74.366;2023-02-13T00:09:21;29.10;;;16.00;;
31224;SDS011;17847;31.524;74.366;2023-02-13T00:12:09;37.72;;;15.68;;
31224;SDS011;17847;31.524;74.366;2023-02-13T00:14:51;33.25;;;16.50;;
31224;SDS011;17847;31.524;74.366;2023-02-13T00:17:40;25.55;;;14.63;;
31224;SDS011;17847;31.524;74.366;2023-02-13T00:20:23;31.75;;;16.85;;
31224;SDS011;17847;31.524;74.366;2023-02-13T00:23:12;34.15;;;16.75;;
31224;SDS011;17847;31.524;74.366;2023-02-13T00:25:48;32.28;;;16.25;;
31224;SDS011;17847;31.524;74.366;2023-02-13T00:28:48;31.58;;;16.55;;
31224;SDS011;17847;31.524;74.366;2023-02-13T00:31:24;40.73;;;18.67;;
31224;SDS011;17847;31.524;74.366;2023-02-13T00:34:19;32.03;;;15.02;;
31224;SDS011;17847;31.524;74.366;2023-02-13T00:37:01;35.85;;;16.92;;
31224;SDS011;17847;31.524;74.366;2023-02-13T00:39:57;32.70;;;17.20;;
31224;SDS011;17847;31.524;74.366;2023-02-13T00:42:39;35.38;;;15.77;;
31224;SDS011;17847;31.524;74.366;2023-02-13T00:45:27;34.55;;;15.45;;
31224;SDS011;17847;31.524;74.366;2023-02-13T00:48:03;33.05;;;15.90;;
31224;SDS011;17847;31.524;74.366;2023-02-13T00:50:59;29.77;;;14.85;;
31224;SDS011;17847;31.524;74.366;2023-02-13T00:53:41;37.97;;;16.80;;
31224;SDS011;17847;31.524;74.366;2023-02-13T00:56:30;37.20;;;16.75;;
31224;SDS011;17847;31.524;74.366;2023-02-13T00:59:12;33.28;;;15.40;;
31224;SDS011;17847;31.524;74.366;2023-02-13T01:02:01;31.50;;;15.48;;
31224;SDS011;17847;31.524;74.366;2023-02-13T01:04:38;29.25;;;14.73;;
31224;SDS011;17847;31.524;74.366;2023-02-13T01:07:33;29.00;;;15.70;;
31224;SDS011;17847;31.524;74.366;2023-02-13T01:10:16;28.90;;;14.65;;
31224;SDS011;17847;31.524;74.366;2023-02-13T01:13:06;32.80;;;15.57;;
31224;SDS011;17847;31.524;74.366;2023-02-13T01:15:49;33.53;;;15.20;;
31224;SDS011;17847;31.524;74.366;2023-02-13T01:18:37;30.50;;;15.00;;
31224;SDS011;17847;31.524;74.366;2023-02-13T01:21:21;25.98;;;14.20;;
31224;SDS011;17847;31.524;74.366;2023-02-13T01:24:15;29.17;;;14.63;;
31224;SDS011;17847;31.524;74.366;2023-02-13T01:26:59;25.63;;;14.45;;
31224;SDS011;17847;31.524;74.366;2023-02-13T01:29:47;30.50;;;14.80;;
31224;SDS011;17847;31.524;74.366;2023-02-13T01:32:30;31.60;;;14.85;;
31224;SDS011;17847;31.524;74.366;2023-02-13T01:35:18;27.48;;;15.02;;
31224;SDS011;17847;31.524;74.366;2023-02-13T01:38:07;42.00;;;15.73;;
31224;SDS011;17847;31.524;74.366;2023-02-13T01:40:50;32.47;;;14.75;;
31224;SDS011;17847;31.524;74.366;2023-02-13T01:43:42;29.88;;;14.45;;
31224;SDS011;17847;31.524;74.366;2023-02-13T01:46:33;31.25;;;15.73;;
31224;SDS011;17847;31.524;74.366;2023-02-13T01:49:31;34.47;;;16.77;;
31224;SDS011;17847;31.524;74.366;2023-02-13T01:52:07;40.58;;;17.95;;
31224;SDS011;17847;31.524;74.366;2023-02-13T01:55:06;38.22;;;18.05;;
31224;SDS011;17847;31.524;74.366;2023-02-13T01:57:53;37.33;;;15.00;;
31224;SDS011;17847;31.524;74.366;2023-02-13T02:00:46;42.15;;;15.85;;
31224;SDS011;17847;31.524;74.366;2023-02-13T02:03:32;30.85;;;14.85;;
31224;SDS011;17847;31.524;74.366;2023-02-13T02:06:29;38.67;;;15.93;;
31224;SDS011;17847;31.524;74.366;2023-02-13T02:09:24;45.65;;;16.70;;
31224;SDS011;17847;31.524;74.366;2023-02-13T02:12:24;40.83;;;16.58;;
31224;SDS011;17847;31.524;74.366;2023-02-13T02:15:16;36.53;;;17.60;;
31224;SDS011;17847;31.524;74.366;2023-02-13T02:18:11;35.95;;;16.50;;
31224;SDS011;17847;31.524;74.366;2023-02-13T02:39:37;49.10;;;19.02;;
31224;SDS011;17847;31.524;74.366;2023-02-13T02:52:18;41.80;;;20.13;;
31224;SDS011;17847;31.524;74.366;2023-02-13T03:01:57;47.58;;;20.35;;
31224;SDS011;17847;31.524;74.366;2023-02-13T03:05:00;36.67;;;19.08;;
31224;SDS011;17847;31.524;74.366;2023-02-13T03:08:08;40.33;;;18.88;;
31224;SDS011;17847;31.524;74.366;2023-02-13T03:10:51;42.67;;;19.75;;
31224;SDS011;17847;31.524;74.366;2023-02-13T03:14:04;42.17;;;19.17;;
31224;SDS011;17847;31.524;74.366;2023-02-13T03:16:51;50.92;;;20.10;;
31224;SDS011;17847;31.524;74.366;2023-02-13T03:20:16;41.33;;;18.40;;
31224;SDS011;17847;31.524;74.366;2023-02-13T03:33:42;34.42;;;18.52;;
31224;SDS011;17847;31.524;74.366;2023-02-13T03:36:46;42.42;;;17.52;;
31224;SDS011;17847;31.524;74.366;2023-02-13T03:40:04;46.33;;;18.05;;
31224;SDS011;17847;31.524;74.366;2023-02-13T03:42:57;36.47;;;18.00;;
31224;SDS011;17847;31.524;74.366;2023-02-13T03:45:56;36.65;;;17.45;;
31224;SDS011;17847;31.524;74.366;2023-02-13T03:48:42;41.00;;;18.30;;
31224;SDS011;17847;31.524;74.366;2023-02-13T03:51:52;41.92;;;20.00;;
31224;SDS011;17847;31.524;74.366;2023-02-13T03:54:42;37.65;;;17.42;;
31224;SDS011;17847;31.524;74.366;2023-02-13T03:57:50;44.15;;;18.02;;
31224;SDS011;17847;31.524;74.366;2023-02-13T04:00:56;40.13;;;19.17;;
31224;SDS011;17847;31.524;74.366;2023-02-13T04:03:49;44.08;;;19.02;;
31224;SDS011;17847;31.524;74.366;2023-02-13T04:06:42;43.22;;;20.25;;
31224;SDS011;17847;31.524;74.366;2023-02-13T04:13:03;39.22;;;18.30;;
31224;SDS011;17847;31.524;74.366;2023-02-13T04:18:39;48.45;;;19.15;;
31224;SDS011;17847;31.524;74.366;2023-02-13T04:21:33;45.10;;;18.35;;
31224;SDS011;17847;31.524;74.366;2023-02-13T04:24:17;42.65;;;17.70;;
31224;SDS011;17847;31.524;74.366;2023-02-13T04:27:13;36.90;;;18.55;;
31224;SDS011;17847;31.524;74.366;2023-02-13T04:29:57;46.05;;;20.25;;
31224;SDS011;17847;31.524;74.366;2023-02-13T04:32:45;35.53;;;18.48;;
31224;SDS011;17847;31.524;74.366;2023-02-13T04:35:28;31.15;;;17.45;;
31224;SDS011;17847;31.524;74.366;2023-02-13T04:38:16;42.45;;;18.23;;
31224;SDS011;17847;31.524;74.366;2023-02-13T04:41:11;36.42;;;17.67;;
31224;SDS011;17847;31.524;74.366;2023-02-13T04:43:54;44.38;;;18.42;;
31224;SDS011;17847;31.524;74.366;2023-02-13T04:46:42;36.60;;;16.90;;
31224;SDS011;17847;31.524;74.366;2023-02-13T04:49:18;43.03;;;18.75;;
31224;SDS011;17847;31.524;74.366;2023-02-13T04:52:14;43.15;;;17.05;;
31224;SDS011;17847;31.524;74.366;2023-02-13T04:54:56;33.10;;;15.85;;
31224;SDS011;17847;31.524;74.366;2023-02-13T04:57:45;36.50;;;16.73;;
31224;SDS011;17847;31.524;74.366;2023-02-13T05:00:27;28.08;;;15.70;;
31224;SDS011;17847;31.524;74.366;2023-02-13T05:03:16;35.53;;;14.52;;
31224;SDS011;17847;31.524;74.366;2023-02-13T05:05:52;30.05;;;13.80;;
31224;SDS011;17847;31.524;74.366;2023-02-13T05:08:47;28.20;;;13.48;;
31224;SDS011;17847;31.524;74.366;2023-02-13T05:11:29;28.13;;;12.27;;
31224;SDS011;17847;31.524;74.366;2023-02-13T05:14:18;36.75;;;14.02;;
31224;SDS011;17847;31.524;74.366;2023-02-13T05:17:02;36.35;;;14.07;;
31224;SDS011;17847;31.524;74.366;2023-02-13T05:19:50;27.40;;;12.48;;
31224;SDS011;17847;31.524;74.366;2023-02-13T05:22:33;41.88;;;13.40;;
31224;SDS011;17847;31.524;74.366;2023-02-13T05:25:40;35.25;;;13.00;;
31224;SDS011;17847;31.524;74.366;2023-02-13T05:28:23;50.13;;;14.48;;
31224;SDS011;17847;31.524;74.366;2023-02-13T05:31:30;38.90;;;12.70;;
31224;SDS011;17847;31.524;74.366;2023-02-13T05:34:12;24.98;;;13.07;;
31224;SDS011;17847;31.524;74.366;2023-02-13T05:37:01;26.08;;;12.13;;
31224;SDS011;17847;31.524;74.366;2023-02-13T05:39:49;34.88;;;11.68;;
31224;SDS011;17847;31.524;74.366;2023-02-13T05:42:32;30.90;;;11.02;;
31224;SDS011;17847;31.524;74.366;2023-02-13T05:45:20;23.83;;;10.15;;
31224;SDS011;17847;31.524;74.366;2023-02-13T05:48:03;24.50;;;8.25;;
31224;SDS011;17847;31.524;74.366;2023-02-13T05:50:51;23.13;;;6.70;;
31224;SDS011;17847;31.524;74.366;2023-02-13T05:53:34;18.60;;;7.22;;
31224;SDS011;17847;31.524;74.366;2023-02-13T05:56:22;32.47;;;8.93;;
31224;SDS011;17847;31.524;74.366;2023-02-13T05:59:05;22.60;;;7.72;;
31224;SDS011;17847;31.524;74.366;2023-02-13T06:01:54;13.57;;;7.00;;
31224;SDS011;17847;31.524;74.366;2023-02-13T06:04:37;27.90;;;7.97;;
31224;SDS011;17847;31.524;74.366;2023-02-13T06:07:25;18.13;;;7.57;;
31224;SDS011;17847;31.524;74.366;2023-02-13T06:10:08;15.18;;;6.53;;
31224;SDS011;17847;31.524;74.366;2023-02-13T06:13:03;16.90;;;6.47;;
31224;SDS011;17847;31.524;74.366;2023-02-13T06:15:49;22.08;;;7.18;;
31224;SDS011;17847;31.524;74.366;2023-02-13T06:18:44;19.48;;;6.22;;
31224;SDS011;17847;31.524;74.366;2023-02-13T06:21:26;13.40;;;6.68;;
31224;SDS011;17847;31.524;74.366;2023-02-13T06:24:14;21.55;;;6.90;;
31224;SDS011;17847;31.524;74.366;2023-02-13T06:26:56;18.48;;;6.07;;
31224;SDS011;17847;31.524;74.366;2023-02-13T06:29:45;10.75;;;4.40;;
31224;SDS011;17847;31.524;74.366;2023-02-13T06:32:29;30.42;;;6.32;;
31224;SDS011;17847;31.524;74.366;2023-02-13T06:35:18;22.60;;;6.80;;
31224;SDS011;17847;31.524;74.366;2023-02-13T06:38:07;17.77;;;4.55;;
31224;SDS011;17847;31.524;74.366;2023-02-13T06:41:05;19.10;;;5.72;;
31224;SDS011;17847;31.524;74.366;2023-02-13T06:43:48;13.18;;;4.60;;
31224;SDS011;17847;31.524;74.366;2023-02-13T06:46:43;12.65;;;5.18;;
31224;SDS011;17847;31.524;74.366;2023-02-13T06:49:25;15.43;;;4.57;;
31224;SDS011;17847;31.524;74.366;2023-02-13T06:52:13;11.05;;;3.80;;
31224;SDS011;17847;31.524;74.366;2023-02-13T06:54:49;16.35;;;4.00;;
31224;SDS011;17847;31.524;74.366;2023-02-13T06:57:44;33.60;;;5.45;;
31224;SDS011;17847;31.524;74.366;2023-02-13T07:00:20;14.43;;;4.82;;
31224;SDS011;17847;31.524;74.366;2023-02-13T07:03:15;15.80;;;4.85;;
31224;SDS011;17847;31.524;74.366;2023-02-13T07:05:57;15.82;;;4.72;;
31224;SDS011;17847;31.524;74.366;2023-02-13T07:08:45;13.13;;;4.38;;
31224;SDS011;17847;31.524;74.366;2023-02-13T07:11:29;13.75;;;4.35;;
31224;SDS011;17847;31.524;74.366;2023-02-13T07:14:18;12.90;;;4.03;;
31224;SDS011;17847;31.524;74.366;2023-02-13T07:17:00;13.13;;;4.78;;
31224;SDS011;17847;31.524;74.366;2023-02-13T07:19:48;17.35;;;4.05;;
31224;SDS011;17847;31.524;74.366;2023-02-13T07:22:24;19.60;;;4.88;;
31224;SDS011;17847;31.524;74.366;2023-02-13T07:25:19;15.75;;;4.80;;
31224;SDS011;17847;31.524;74.366;2023-02-13T07:27:59;12.70;;;4.20;;
31224;SDS011;17847;31.524;74.366;2023-02-13T07:30:55;17.45;;;4.88;;
31224;SDS011;17847;31.524;74.366;2023-02-13T07:33:38;16.52;;;5.15;;
31224;SDS011;17847;31.524;74.366;2023-02-13T07:36:27;18.33;;;4.97;;
31224;SDS011;17847;31.524;74.366;2023-02-13T07:39:15;22.40;;;5.50;;
31224;SDS011;17847;31.524;74.366;2023-02-13T07:41:57;12.57;;;4.95;;
31224;SDS011;17847;31.524;74.366;2023-02-13T07:44:46;6.50;;;4.27;;
31224;SDS011;17847;31.524;74.366;2023-02-13T07:47:28;12.90;;;4.70;;
31224;SDS011;17847;31.524;74.366;2023-02-13T07:50:17;7.55;;;4.25;;
31224;SDS011;17847;31.524;74.366;2023-02-13T07:53:00;16.88;;;4.60;;
31224;SDS011;17847;31.524;74.366;2023-02-13T07:55:49;7.68;;;3.75;;
31224;SDS011;17847;31.524;74.366;2023-02-13T07:58:32;14.02;;;4.15;;
31224;SDS011;17847;31.524;74.366;2023-02-13T08:01:21;15.00;;;5.15;;
31224;SDS011;17847;31.524;74.366;2023-02-13T08:04:03;9.45;;;5.13;;
31224;SDS011;17847;31.524;74.366;2023-02-13T08:06:52;12.95;;;4.80;;
31224;SDS011;17847;31.524;74.366;2023-02-13T08:09:28;10.18;;;4.50;;
31224;SDS011;17847;31.524;74.366;2023-02-13T08:12:41;11.40;;;3.97;;
31224;SDS011;17847;31.524;74.366;2023-02-13T08:15:24;13.00;;;4.75;;
31224;SDS011;17847;31.524;74.366;2023-02-13T08:18:13;13.43;;;4.15;;
31224;SDS011;17847;31.524;74.366;2023-02-13T08:20:55;14.85;;;4.55;;
31224;SDS011;17847;31.524;74.366;2023-02-13T08:23:43;11.25;;;4.55;;
31224;SDS011;17847;31.524;74.366;2023-02-13T08:26:25;12.52;;;4.15;;
31224;SDS011;17847;31.524;74.366;2023-02-13T08:29:13;11.40;;;4.95;;
31224;SDS011;17847;31.524;74.366;2023-02-13T08:31:55;10.20;;;3.95;;
31224;SDS011;17847;31.524;74.366;2023-02-13T08:34:44;14.50;;;3.70;;
31224;SDS011;17847;31.524;74.366;2023-02-13T08:37:26;14.98;;;5.63;;
31224;SDS011;17847;31.524;74.366;2023-02-13T08:40:14;10.75;;;4.10;;
31224;SDS011;17847;31.524;74.366;2023-02-13T08:43:09;13.38;;;5.60;;
31224;SDS011;17847;31.524;74.366;2023-02-13T08:45:52;14.35;;;4.45;;
31224;SDS011;17847;31.524;74.366;2023-02-13T08:48:40;10.23;;;4.18;;
31224;SDS011;17847;31.524;74.366;2023-02-13T08:51:23;10.52;;;4.60;;
31224;SDS011;17847;31.524;74.366;2023-02-13T08:54:12;12.02;;;4.28;;
31224;SDS011;17847;31.524;74.366;2023-02-13T08:56:55;22.23;;;4.38;;
31224;SDS011;17847;31.524;74.366;2023-02-13T08:59:44;9.13;;;4.20;;
31224;SDS011;17847;31.524;74.366;2023-02-13T09:02:27;14.27;;;4.53;;
31224;SDS011;17847;31.524;74.366;2023-02-13T09:05:15;8.43;;;4.70;;
31224;SDS011;17847;31.524;74.366;2023-02-13T09:07:59;14.23;;;6.43;;
31224;SDS011;17847;31.524;74.366;2023-02-13T09:10:53;18.98;;;4.95;;
31224;SDS011;17847;31.524;74.366;2023-02-13T09:13:38;10.23;;;5.05;;
31224;SDS011;17847;31.524;74.366;2023-02-13T09:16:27;11.95;;;4.40;;
31224;SDS011;17847;31.524;74.366;2023-02-13T09:19:10;11.23;;;4.20;;
31224;SDS011;17847;31.524;74.366;2023-02-13T09:21:58;11.70;;;4.30;;
31224;SDS011;17847;31.524;74.366;2023-02-13T09:24:41;13.18;;;5.05;;
31224;SDS011;17847;31.524;74.366;2023-02-13T09:27:29;11.00;;;4.90;;
31224;SDS011;17847;31.524;74.366;2023-02-13T09:30:12;11.82;;;4.57;;
31224;SDS011;17847;31.524;74.366;2023-02-13T09:33:10;11.55;;;4.10;;
31224;SDS011;17847;31.524;74.366;2023-02-13T09:35:53;13.00;;;4.78;;
31224;SDS011;17847;31.524;74.366;2023-02-13T09:38:41;20.33;;;4.45;;
31224;SDS011;17847;31.524;74.366;2023-02-13T09:41:38;10.77;;;4.82;;
31224;SDS011;17847;31.524;74.366;2023-02-13T09:44:28;9.63;;;4.57;;
31224;SDS011;17847;31.524;74.366;2023-02-13T09:47:41;23.13;;;4.88;;
31224;SDS011;17847;31.524;74.366;2023-02-13T09:50:38;10.55;;;4.68;;
31224;SDS011;17847;31.524;74.366;2023-02-13T09:53:22;14.70;;;4.30;;
31224;SDS011;17847;31.524;74.366;2023-02-13T09:56:19;10.18;;;4.93;;
31224;SDS011;17847;31.524;74.366;2023-02-13T09:59:31;10.02;;;3.90;;
31224;SDS011;17847;31.524;74.366;2023-02-13T10:08:46;15.50;;;4.95;;
31224;SDS011;17847;31.524;74.366;2023-02-13T10:18:05;11.88;;;5.32;;
31224;SDS011;17847;31.524;74.366;2023-02-13T10:21:02;18.77;;;5.00;;
31224;SDS011;17847;31.524;74.366;2023-02-13T10:23:50;13.38;;;5.00;;
31224;SDS011;17847;31.524;74.366;2023-02-13T10:26:51;10.43;;;4.25;;
31224;SDS011;17847;31.524;74.366;2023-02-13T10:29:52;9.35;;;5.35;;
31224;SDS011;17847;31.524;74.366;2023-02-13T10:39:04;15.15;;;5.72;;
31224;SDS011;17847;31.524;74.366;2023-02-13T11:03:41;11.93;;;5.65;;
31224;SDS011;17847;31.524;74.366;2023-02-13T11:06:29;20.48;;;6.88;;
31224;SDS011;17847;31.524;74.366;2023-02-13T11:09:14;14.20;;;6.85;;
31224;SDS011;17847;31.524;74.366;2023-02-13T11:18:17;11.93;;;6.53;;
31224;SDS011;17847;31.524;74.366;2023-02-13T11:21:06;16.38;;;5.97;;
31224;SDS011;17847;31.524;74.366;2023-02-13T11:24:02;17.75;;;5.85;;
31224;SDS011;17847;31.524;74.366;2023-02-13T11:26:48;20.42;;;5.90;;
31224;SDS011;17847;31.524;74.366;2023-02-13T11:29:52;14.98;;;5.90;;
31224;SDS011;17847;31.524;74.366;2023-02-13T11:32:39;14.25;;;5.55;;
31224;SDS011;17847;31.524;74.366;2023-02-13T11:35:29;17.65;;;5.22;;
31224;SDS011;17847;31.524;74.366;2023-02-13T11:41:12;16.83;;;5.15;;
31224;SDS011;17847;31.524;74.366;2023-02-13T11:44:30;16.88;;;5.68;;
31224;SDS011;17847;31.524;74.366;2023-02-13T11:47:13;14.07;;;5.55;;
31224;SDS011;17847;31.524;74.366;2023-02-13T11:50:03;16.00;;;6.10;;
31224;SDS011;17847;31.524;74.366;2023-02-13T11:52:57;15.57;;;5.90;;
31224;SDS011;17847;31.524;74.366;2023-02-13T11:56:00;11.90;;;5.03;;
31224;SDS011;17847;31.524;74.366;2023-02-13T11:58:37;12.27;;;4.95;;
31224;SDS011;17847;31.524;74.366;2023-02-13T12:01:33;22.17;;;5.82;;
31224;SDS011;17847;31.524;74.366;2023-02-13T12:04:17;26.60;;;6.82;;
31224;SDS011;17847;31.524;74.366;2023-02-13T12:16:01;10.52;;;5.25;;
31224;SDS011;17847;31.524;74.366;2023-02-13T12:19:12;17.95;;;5.20;;
31224;SDS011;17847;31.524;74.366;2023-02-13T12:28:43;8.85;;;4.63;;
31224;SDS011;17847;31.524;74.366;2023-02-13T12:38:19;21.60;;;5.82;;
31224;SDS011;17847;31.524;74.366;2023-02-13T13:26:59;26.88;;;7.47;;
31224;SDS011;17847;31.524;74.366;2023-02-13T13:29:43;24.13;;;8.40;;
31224;SDS011;17847;31.524;74.366;2023-02-13T13:32:35;37.97;;;9.32;;
31224;SDS011;17847;31.524;74.366;2023-02-13T13:35:18;34.05;;;8.27;;
31224;SDS011;17847;31.524;74.366;2023-02-13T13:41:16;41.03;;;8.45;;
31224;SDS011;17847;31.524;74.366;2023-02-13T13:51:18;27.02;;;8.57;;
31224;SDS011;17847;31.524;74.366;2023-02-13T14:05:56;24.25;;;9.50;;
31224;SDS011;17847;31.524;74.366;2023-02-13T14:14:42;35.85;;;11.02;;
31224;SDS011;17847;31.524;74.366;2023-02-13T14:20:33;29.92;;;13.68;;
31224;SDS011;17847;31.524;74.366;2023-02-13T14:26:33;34.08;;;13.25;;
31224;SDS011;17847;31.524;74.366;2023-02-13T14:29:26;31.80;;;11.65;;
31224;SDS011;17847;31.524;74.366;2023-02-13T14:32:18;27.00;;;13.87;;
31224;SDS011;17847;31.524;74.366;2023-02-13T14:35:22;27.77;;;11.65;;
31224;SDS011;17847;31.524;74.366;2023-02-13T14:38:20;39.85;;;12.52;;
31224;SDS011;17847;31.524;74.366;2023-02-13T14:47:40;50.42;;;13.55;;
31224;SDS011;17847;31.524;74.366;2023-02-13T14:50:49;46.70;;;13.05;;
31224;SDS011;17847;31.524;74.366;2023-02-13T14:53:50;50.05;;;13.88;;
31224;SDS011;17847;31.524;74.366;2023-02-13T14:56:43;35.13;;;12.23;;
31224;SDS011;17847;31.524;74.366;2023-02-13T14:59:30;29.40;;;10.05;;
31224;SDS011;17847;31.524;74.366;2023-02-13T15:05:40;34.35;;;12.70;;
31224;SDS011;17847;31.524;74.366;2023-02-13T15:08:37;42.67;;;14.65;;
31224;SDS011;17847;31.524;74.366;2023-02-13T15:11:42;42.95;;;14.32;;
31224;SDS011;17847;31.524;74.366;2023-02-13T15:14:32;57.28;;;17.67;;
31224;SDS011;17847;31.524;74.366;2023-02-13T15:17:16;40.40;;;16.40;;
31224;SDS011;17847;31.524;74.366;2023-02-13T15:20:07;47.05;;;17.08;;
31224;SDS011;17847;31.524;74.366;2023-02-13T15:23:21;47.60;;;15.98;;
31224;SDS011;17847;31.524;74.366;2023-02-13T15:26:20;39.03;;;15.20;;
31224;SDS011;17847;31.524;74.366;2023-02-13T15:29:12;35.65;;;12.30;;
31224;SDS011;17847;31.524;74.366;2023-02-13T15:32:27;56.05;;;16.75;;
31224;SDS011;17847;31.524;74.366;2023-02-13T15:38:24;50.50;;;17.00;;
31224;SDS011;17847;31.524;74.366;2023-02-13T15:41:21;52.22;;;17.63;;
31224;SDS011;17847;31.524;74.366;2023-02-13T15:44:12;46.15;;;18.58;;
31224;SDS011;17847;31.524;74.366;2023-02-13T15:47:06;56.22;;;18.70;;
31224;SDS011;17847;31.524;74.366;2023-02-13T15:49:56;58.67;;;18.45;;
31224;SDS011;17847;31.524;74.366;2023-02-13T15:52:44;48.30;;;18.40;;
31224;SDS011;17847;31.524;74.366;2023-02-13T15:55:29;65.28;;;24.90;;
31224;SDS011;17847;31.524;74.366;2023-02-13T15:58:19;59.88;;;22.40;;
31224;SDS011;17847;31.524;74.366;2023-02-13T16:04:07;90.40;;;37.00;;
31224;SDS011;17847;31.524;74.366;2023-02-13T16:07:07;129.02;;;49.88;;
31224;SDS011;17847;31.524;74.366;2023-02-13T16:10:12;177.07;;;64.00;;
31224;SDS011;17847;31.524;74.366;2023-02-13T16:13:04;135.65;;;51.25;;
31224;SDS011;17847;31.524;74.366;2023-02-13T16:15:48;208.95;;;73.10;;
31224;SDS011;17847;31.524;74.366;2023-02-13T16:18:38;157.50;;;62.28;;
31224;SDS011;17847;31.524;74.366;2023-02-13T16:21:25;147.80;;;61.25;;
31224;SDS011;17847;31.524;74.366;2023-02-13T16:24:17;121.60;;;52.35;;
31224;SDS011;17847;31.524;74.366;2023-02-13T16:27:00;90.55;;;40.25;;
31224;SDS011;17847;31.524;74.366;2023-02-13T16:29:53;86.70;;;40.00;;
31224;SDS011;17847;31.524;74.366;2023-02-13T16:32:41;79.40;;;32.88;;
31224;SDS011;17847;31.524;74.366;2023-02-13T16:35:30;67.65;;;32.28;;
31224;SDS011;17847;31.524;74.366;2023-02-13T16:38:27;68.55;;;26.02;;
31224;SDS011;17847;31.524;74.366;2023-02-13T16:44:05;66.72;;;25.60;;
31224;SDS011;17847;31.524;74.366;2023-02-13T16:47:20;53.38;;;23.92;;
31224;SDS011;17847;31.524;74.366;2023-02-13T16:50:11;48.97;;;23.70;;
31224;SDS011;17847;31.524;74.366;2023-02-13T16:53:04;49.53;;;24.50;;
31224;SDS011;17847;31.524;74.366;2023-02-13T16:55:46;58.20;;;25.88;;
31224;SDS011;17847;31.524;74.366;2023-02-13T16:58:45;59.03;;;26.38;;
31224;SDS011;17847;31.524;74.366;2023-02-13T17:01:28;56.53;;;27.02;;
31224;SDS011;17847;31.524;74.366;2023-02-13T17:04:24;62.28;;;26.42;;
31224;SDS011;17847;31.524;74.366;2023-02-13T17:07:30;59.15;;;29.08;;
31224;SDS011;17847;31.524;74.366;2023-02-13T17:10:22;64.10;;;27.73;;
31224;SDS011;17847;31.524;74.366;2023-02-13T17:13:14;66.88;;;29.55;;
31224;SDS011;17847;31.524;74.366;2023-02-13T17:15:58;54.92;;;27.73;;
31224;SDS011;17847;31.524;74.366;2023-02-13T17:18:47;66.40;;;28.30;;
31224;SDS011;17847;31.524;74.366;2023-02-13T17:21:29;74.60;;;27.25;;
31224;SDS011;17847;31.524;74.366;2023-02-13T17:27:01;54.10;;;23.98;;
31224;SDS011;17847;31.524;74.366;2023-02-13T17:29:50;72.23;;;25.80;;
31224;SDS011;17847;31.524;74.366;2023-02-13T17:32:33;62.92;;;26.27;;
31224;SDS011;17847;31.524;74.366;2023-02-13T17:35:22;56.47;;;24.58;;
31224;SDS011;17847;31.524;74.366;2023-02-13T17:38:05;45.30;;;22.83;;
31224;SDS011;17847;31.524;74.366;2023-02-13T17:40:56;57.92;;;21.98;;
31224;SDS011;17847;31.524;74.366;2023-02-13T17:43:39;46.20;;;21.67;;
31224;SDS011;17847;31.524;74.366;2023-02-13T17:46:29;41.15;;;20.27;;
31224;SDS011;17847;31.524;74.366;2023-02-13T17:49:11;44.60;;;20.38;;
31224;SDS011;17847;31.524;74.366;2023-02-13T17:52:01;41.03;;;20.67;;
31224;SDS011;17847;31.524;74.366;2023-02-13T17:54:44;36.83;;;19.75;;
31224;SDS011;17847;31.524;74.366;2023-02-13T17:57:34;49.25;;;18.77;;
31224;SDS011;17847;31.524;74.366;2023-02-13T18:00:17;45.00;;;18.75;;
31224;SDS011;17847;31.524;74.366;2023-02-13T18:03:06;40.22;;;17.73;;
31224;SDS011;17847;31.524;74.366;2023-02-13T18:05:49;41.20;;;18.55;;
31224;SDS011;17847;31.524;74.366;2023-02-13T18:08:38;46.10;;;18.57;;
31224;SDS011;17847;31.524;74.366;2023-02-13T18:11:20;40.20;;;18.20;;
31224;SDS011;17847;31.524;74.366;2023-02-13T18:14:09;53.23;;;19.00;;
31224;SDS011;17847;31.524;74.366;2023-02-13T18:16:51;44.22;;;17.05;;
31224;SDS011;17847;31.524;74.366;2023-02-13T18:19:39;42.10;;;17.77;;
31224;SDS011;17847;31.524;74.366;2023-02-13T18:22:24;42.80;;;18.45;;
31224;SDS011;17847;31.524;74.366;2023-02-13T18:25:13;45.20;;;17.38;;
31224;SDS011;17847;31.524;74.366;2023-02-13T18:27:49;40.38;;;17.65;;
31224;SDS011;17847;31.524;74.366;2023-02-13T18:30:45;41.20;;;17.23;;
31224;SDS011;17847;31.524;74.366;2023-02-13T18:33:27;43.17;;;19.20;;
31224;SDS011;17847;31.524;74.366;2023-02-13T18:36:16;38.73;;;17.83;;
31224;SDS011;17847;31.524;74.366;2023-02-13T18:38:58;44.17;;;19.35;;
31224;SDS011;17847;31.524;74.366;2023-02-13T18:41:47;43.80;;;19.07;;
31224;SDS011;17847;31.524;74.366;2023-02-13T18:44:30;35.55;;;18.52;;
31224;SDS011;17847;31.524;74.366;2023-02-13T18:47:19;35.80;;;18.10;;
31224;SDS011;17847;31.524;74.366;2023-02-13T18:49:55;40.40;;;17.50;;
31224;SDS011;17847;31.524;74.366;2023-02-13T18:52:50;42.83;;;18.20;;
31224;SDS011;17847;31.524;74.366;2023-02-13T18:55:32;39.60;;;18.25;;
31224;SDS011;17847;31.524;74.366;2023-02-13T18:58:21;39.17;;;18.38;;
31224;SDS011;17847;31.524;74.366;2023-02-13T19:01:04;39.90;;;17.90;;
31224;SDS011;17847;31.524;74.366;2023-02-13T19:04:01;48.03;;;17.38;;
31224;SDS011;17847;31.524;74.366;2023-02-13T19:06:57;35.67;;;17.15;;
31224;SDS011;17847;31.524;74.366;2023-02-13T19:09:40;36.13;;;17.63;;
31224;SDS011;17847;31.524;74.366;2023-02-13T19:12:28;36.25;;;16.95;;
31224;SDS011;17847;31.524;74.366;2023-02-13T19:15:11;38.22;;;19.10;;
31224;SDS011;17847;31.524;74.366;2023-02-13T19:17:59;40.75;;;18.35;;
31224;SDS011;17847;31.524;74.366;2023-02-13T19:20:42;31.90;;;17.10;;
31224;SDS011;17847;31.524;74.366;2023-02-13T19:23:31;42.17;;;16.75;;
31224;SDS011;17847;31.524;74.366;2023-02-13T19:26:16;40.05;;;16.52;;
31224;SDS011;17847;31.524;74.366;2023-02-13T19:29:07;38.22;;;17.17;;
31224;SDS011;17847;31.524;74.366;2023-02-13T19:31:50;36.00;;;17.35;;
31224;SDS011;17847;31.524;74.366;2023-02-13T19:34:38;34.92;;;17.73;;
31224;SDS011;17847;31.524;74.366;2023-02-13T19:37:21;27.45;;;17.23;;
31224;SDS011;17847;31.524;74.366;2023-02-13T19:40:22;38.63;;;18.25;;
31224;SDS011;17847;31.524;74.366;2023-02-13T19:43:05;38.33;;;17.98;;
31224;SDS011;17847;31.524;74.366;2023-02-13T19:45:53;31.25;;;19.30;;
31224;SDS011;17847;31.524;74.366;2023-02-13T19:48:36;36.35;;;18.13;;
31224;SDS011;17847;31.524;74.366;2023-02-13T19:51:25;39.22;;;18.25;;
31224;SDS011;17847;31.524;74.366;2023-02-13T19:54:10;45.45;;;19.17;;
31224;SDS011;17847;31.524;74.366;2023-02-13T19:56:58;41.78;;;18.58;;
31224;SDS011;17847;31.524;74.366;2023-02-13T19:59:45;42.77;;;20.50;;
31224;SDS011;17847;31.524;74.366;2023-02-13T20:02:43;36.47;;;20.15;;
31224;SDS011;17847;31.524;74.366;2023-02-13T20:05:26;40.90;;;19.30;;
31224;SDS011;17847;31.524;74.366;2023-02-13T20:08:15;36.00;;;18.65;;